Sign in

Goboko App

Advertising

Info

Aviation weather - KDAB

METAR KDAB 241853Z 26018G27KT 10SM SCT050TCU BKN075 29/14 A2966 RMK AO2 PK WND 24030/1820 RAE17B41E42 SLP044 TCU E-SE DSNT N NE P0000 T02890144

TAF KDAB 241734Z 2418/2518 26015G23KT P6SM VCSH SCT035 BKN050 TEMPO 2418/2420 -RA BKN025 FM242000 27017G24KT P6SM FEW040 SCT080 FM250100 26008KT P6SM SCT250 FM251400 28012KT P6SM SKC

Aviation weather from ADDS. Re-check weather before flight.

-